createdAt,value
2019-05-04T00:01:25.579Z,100300.45
2019-05-04T00:03:27.329Z,100302.13
2019-05-04T00:05:30.689Z,100307.04
2019-05-04T00:07:32.114Z,100300.98
2019-05-04T00:09:34.664Z,100297.16
2019-05-04T00:11:36.167Z,100298.38
2019-05-04T00:13:37.573Z,100295.65
2019-05-04T00:15:38.943Z,100290.84
2019-05-04T00:17:40.352Z,100296.30
2019-05-04T00:19:41.717Z,100291.23
2019-05-04T00:21:43.100Z,100294.01
2019-05-04T00:23:45.115Z,100291.71
2019-05-04T00:25:49.177Z,100293.06
2019-05-04T00:27:49.955Z,100295.83
2019-05-04T00:29:51.360Z,100295.86
2019-05-04T00:31:54.646Z,100297.02
2019-05-04T00:34:00.851Z,100293.23
2019-05-04T00:36:05.454Z,100290.36
2019-05-04T00:38:07.032Z,100289.75
2019-05-04T00:40:08.509Z,100285.42
2019-05-04T00:42:09.917Z,100287.84
2019-05-04T00:44:11.691Z,100288.70
2019-05-04T00:46:13.065Z,100291.13
2019-05-04T00:48:15.143Z,100287.45
2019-05-04T00:50:16.586Z,100278.27
2019-05-04T00:52:17.964Z,100283.16
2019-05-04T00:54:19.396Z,100282.41
2019-05-04T00:56:21.456Z,100282.64
2019-05-04T00:58:30.004Z,100281.66
2019-05-04T01:00:34.758Z,100284.56
2019-05-04T01:02:36.311Z,100278.20
2019-05-04T01:04:37.659Z,100282.36
2019-05-04T01:06:39.077Z,100277.12
2019-05-04T01:08:40.450Z,100280.52
2019-05-04T01:10:41.813Z,100281.05
2019-05-04T01:12:45.078Z,100281.87
2019-05-04T01:14:46.550Z,100282.42
2019-05-04T01:16:47.955Z,100284.74
2019-05-04T01:18:49.334Z,100283.32
2019-05-04T01:20:50.738Z,100276.34
2019-05-04T01:22:52.112Z,100278.63
2019-05-04T01:24:55.185Z,100275.88
2019-05-04T01:26:56.737Z,100268.38
2019-05-04T01:28:58.103Z,100268.19
2019-05-04T01:30:59.503Z,100269.30
2019-05-04T01:33:00.869Z,100272.23
2019-05-04T01:35:05.338Z,100273.06
2019-05-04T01:37:11.928Z,100266.64
2019-05-04T01:39:21.150Z,100266.09
2019-05-04T01:41:36.185Z,100275.99
2019-05-04T01:43:37.589Z,100271.30
2019-05-04T01:45:39.012Z,100270.00
2019-05-04T01:47:40.393Z,100266.44
2019-05-04T01:49:41.755Z,100264.85
2019-05-04T01:51:43.179Z,100263.13
2019-05-04T01:53:45.375Z,100259.96
2019-05-04T01:55:46.936Z,100261.92
2019-05-04T01:57:55.242Z,100259.47
2019-05-04T01:59:57.058Z,100259.62
2019-05-04T02:01:58.420Z,100255.16
2019-05-04T02:03:59.789Z,100257.70
2019-05-04T02:06:01.226Z,100253.31
2019-05-04T02:08:02.819Z,100254.03
2019-05-04T02:10:05.434Z,100250.41
2019-05-04T02:12:07.089Z,100253.34
2019-05-04T02:14:08.761Z,100247.97
2019-05-04T02:16:10.140Z,100244.17
2019-05-04T02:18:11.510Z,100241.70
2019-05-04T02:20:14.563Z,100240.69
2019-05-04T02:22:18.044Z,100248.95
2019-05-04T02:24:19.454Z,100242.56
2019-05-04T02:26:24.542Z,100252.77
2019-05-04T02:28:30.585Z,100252.93
2019-05-04T02:30:36.718Z,100251.82
2019-05-04T02:32:37.147Z,100251.75
2019-05-04T02:34:38.596Z,100247.91
2019-05-04T02:36:40.019Z,100245.98
2019-05-04T02:38:41.380Z,100238.59
2019-05-04T02:40:54.188Z,100235.91
2019-05-04T02:42:51.773Z,100229.19
2019-05-04T02:44:55.722Z,100231.44
2019-05-04T02:46:58.353Z,100230.45
2019-05-04T02:49:10.892Z,100227.44
2019-05-04T02:51:16.102Z,100228.70
2019-05-04T02:53:17.433Z,100225.28
2019-05-04T02:55:18.956Z,100229.98
2019-05-04T02:57:20.331Z,100232.83
2019-05-04T02:59:21.743Z,100234.97
2019-05-04T03:01:25.680Z,100230.97
2019-05-04T03:03:26.517Z,100227.14
2019-05-04T03:05:27.937Z,100232.56
2019-05-04T03:07:29.354Z,100227.45
2019-05-04T03:09:30.735Z,100232.11
2019-05-04T03:11:32.115Z,100235.52
2019-05-04T03:13:35.613Z,100231.64
2019-05-04T03:15:36.878Z,100230.78
2019-05-04T03:17:55.862Z,100231.55
2019-05-04T03:19:59.369Z,100228.27
2019-05-04T03:22:11.626Z,100233.11
2019-05-04T03:24:29.421Z,100228.06
2019-05-04T03:26:30.800Z,100225.26
2019-05-04T03:28:32.222Z,100222.98
2019-05-04T03:30:38.843Z,100228.23
2019-05-04T03:32:38.827Z,100221.27
2019-05-04T03:35:03.289Z,100221.14
2019-05-04T03:36:48.397Z,100218.45
2019-05-04T03:38:53.830Z,100218.70
2019-05-04T03:40:51.000Z,100218.09
2019-05-04T03:42:55.360Z,100217.95
2019-05-04T03:44:57.605Z,100217.42
2019-05-04T03:47:19.347Z,100223.23
2019-05-04T03:49:36.377Z,100216.28
2019-05-04T03:51:37.981Z,100216.63
2019-05-04T03:53:39.400Z,100220.63
2019-05-04T03:55:40.750Z,100225.22
2019-05-04T03:57:42.159Z,100227.73
2019-05-04T03:59:46.053Z,100227.66
2019-05-04T04:01:46.953Z,100226.18
2019-05-04T04:03:48.343Z,100229.55
2019-05-04T04:05:49.718Z,100226.80
2019-05-04T04:07:51.123Z,100224.02
2019-05-04T04:09:52.487Z,100226.91
2019-05-04T04:11:55.470Z,100229.12
2019-05-04T04:13:57.176Z,100225.02
2019-05-04T04:16:00.546Z,100227.48
2019-05-04T04:18:06.497Z,100228.30
2019-05-04T04:20:07.937Z,100231.45
2019-05-04T04:22:09.331Z,100231.44
2019-05-04T04:24:10.736Z,100233.95
2019-05-04T04:26:16.244Z,100231.67
2019-05-04T04:28:24.922Z,100237.28
2019-05-04T04:30:20.740Z,100233.47
2019-05-04T04:32:22.114Z,100231.64
2019-05-04T04:34:26.038Z,100235.30
2019-05-04T04:36:26.788Z,100242.03
2019-05-04T04:38:28.161Z,100239.30
2019-05-04T04:40:29.584Z,100235.17
2019-05-04T04:42:30.963Z,100239.77
2019-05-04T04:44:32.336Z,100236.06
2019-05-04T04:46:35.563Z,100241.84
2019-05-04T04:48:37.057Z,100238.09
2019-05-04T04:50:39.527Z,100235.89
2019-05-04T04:52:40.930Z,100235.75
2019-05-04T04:54:47.637Z,100239.73
2019-05-04T04:56:47.531Z,100236.51
2019-05-04T04:58:56.995Z,100241.72
2019-05-04T05:01:14.861Z,100243.56
2019-05-04T05:03:15.872Z,100250.20
2019-05-04T05:05:17.539Z,100249.63
2019-05-04T05:07:18.924Z,100248.94
2019-05-04T05:09:20.307Z,100237.63
2019-05-04T05:11:21.686Z,100239.69
2019-05-04T05:13:24.904Z,100231.35
2019-05-04T05:15:26.408Z,100227.90
2019-05-04T05:17:27.752Z,100226.20
2019-05-04T05:19:29.156Z,100227.71
2019-05-04T05:21:30.569Z,100226.89
2019-05-04T05:23:31.917Z,100227.78
2019-05-04T05:25:34.995Z,100229.23
2019-05-04T05:27:36.497Z,100223.36
2019-05-04T05:29:37.959Z,100224.97
2019-05-04T05:31:50.181Z,100222.31
2019-05-04T05:33:59.392Z,100221.59
2019-05-04T05:36:04.662Z,100222.32
2019-05-04T05:38:06.095Z,100215.48
2019-05-04T05:40:07.704Z,100215.45
2019-05-04T05:42:09.078Z,100225.32
2019-05-04T05:44:10.488Z,100228.72
2019-05-04T05:46:33.238Z,100238.00
2019-05-04T05:48:38.470Z,100241.70
2019-05-04T05:50:42.065Z,100237.14
2019-05-04T05:52:45.421Z,100242.34
2019-05-04T05:54:54.899Z,100240.70
2019-05-04T05:56:58.213Z,100234.06
2019-05-04T05:59:05.514Z,100233.42
2019-05-04T06:01:11.653Z,100238.54
2019-05-04T06:03:23.974Z,100234.52
2019-05-04T06:05:31.532Z,100241.60
2019-05-04T06:07:31.082Z,100243.71
2019-05-04T06:09:34.527Z,100242.48
2019-05-04T06:11:38.758Z,100242.64
2019-05-04T06:13:54.467Z,100240.28
2019-05-04T06:16:00.674Z,100237.72
2019-05-04T06:18:04.452Z,100239.85
2019-05-04T06:20:18.087Z,100243.69
2019-05-04T06:22:19.198Z,100245.47
2019-05-04T06:24:24.356Z,100241.50
2019-05-04T06:26:30.333Z,100240.23
2019-05-04T06:28:44.312Z,100234.84
2019-05-04T06:31:11.245Z,100234.91
2019-05-04T06:33:12.452Z,100235.44
2019-05-04T06:35:15.148Z,100236.13
2019-05-04T06:37:35.539Z,100240.39
2019-05-04T06:39:45.025Z,100236.16
2019-05-04T06:41:48.292Z,100238.50
2019-05-04T06:43:58.694Z,100239.64
2019-05-04T06:46:02.539Z,100235.86
2019-05-04T06:48:05.450Z,100242.45
2019-05-04T06:50:09.232Z,100232.69
2019-05-04T06:52:28.557Z,100241.66
2019-05-04T06:54:31.853Z,100232.55
2019-05-04T06:56:38.951Z,100235.08
2019-05-04T06:58:41.751Z,100230.30
2019-05-04T07:00:45.201Z,100228.02
2019-05-04T07:02:46.658Z,100225.94
2019-05-04T07:04:48.115Z,100234.73
2019-05-04T07:06:49.525Z,100228.44
2019-05-04T07:08:50.897Z,100228.75
2019-05-04T07:11:12.404Z,100225.85
2019-05-04T07:13:07.912Z,100222.73
2019-05-04T07:14:59.157Z,100219.98
2019-05-04T07:17:00.514Z,100226.20
2019-05-04T07:19:01.925Z,100224.88
2019-05-04T07:21:04.997Z,100229.39
2019-05-04T07:23:10.167Z,100229.22
2019-05-04T07:25:14.686Z,100230.86
2019-05-04T07:27:14.752Z,100235.44
2019-05-04T07:29:19.058Z,100235.47
2019-05-04T07:31:24.874Z,100240.42
2019-05-04T07:33:30.853Z,100237.86
2019-05-04T07:35:50.597Z,100237.79
2019-05-04T07:38:04.889Z,100231.12
2019-05-04T07:40:32.868Z,100235.69
2019-05-04T07:42:33.352Z,100234.98
2019-05-04T07:44:35.584Z,100237.86
2019-05-04T07:46:39.519Z,100241.56
2019-05-04T07:48:47.410Z,100239.27
2019-05-04T07:50:44.720Z,100238.11
2019-05-04T07:52:46.235Z,100238.27
2019-05-04T07:54:47.660Z,100234.41
2019-05-04T07:56:49.028Z,100235.20
2019-05-04T07:58:50.393Z,100238.36
2019-05-04T08:00:51.811Z,100239.59
2019-05-04T08:02:55.135Z,100248.52
2019-05-04T08:04:56.505Z,100248.05
2019-05-04T08:07:00.597Z,100245.06
2019-05-04T08:09:10.823Z,100248.88
2019-05-04T08:11:10.465Z,100244.31
2019-05-04T08:13:09.692Z,100243.08
2019-05-04T08:15:15.725Z,100244.26
2019-05-04T08:17:16.345Z,100246.84
2019-05-04T08:19:17.750Z,100245.00
2019-05-04T08:21:21.041Z,100253.77
2019-05-04T08:23:22.388Z,100252.01
2019-05-04T08:25:24.989Z,100249.20
2019-05-04T08:27:26.667Z,100249.80
2019-05-04T08:29:28.222Z,100243.34
2019-05-04T08:31:30.393Z,100247.52
2019-05-04T08:33:32.058Z,100245.52
2019-05-04T08:35:35.199Z,100245.05
2019-05-04T08:37:36.710Z,100244.30
2019-05-04T08:39:38.130Z,100246.56
2019-05-04T08:41:41.491Z,100248.09
2019-05-04T08:43:47.707Z,100248.78
2019-05-04T08:45:50.048Z,100239.02
2019-05-04T08:47:58.386Z,100235.56
2019-05-04T08:50:04.797Z,100239.05
2019-05-04T08:52:13.779Z,100249.00
2019-05-04T08:54:18.938Z,100240.44
2019-05-04T08:56:22.594Z,100240.24
2019-05-04T08:58:27.031Z,100234.45
2019-05-04T09:00:33.612Z,100236.57
2019-05-04T09:02:39.678Z,100230.73
2019-05-04T09:04:46.793Z,100231.57
2019-05-04T09:06:55.638Z,100226.73
2019-05-04T09:08:49.129Z,100218.31
2019-05-04T09:11:06.394Z,100225.98
2019-05-04T09:12:54.310Z,100224.08
2019-05-04T09:14:55.825Z,100228.64
2019-05-04T09:16:57.197Z,100210.93
2019-05-04T09:18:58.582Z,100208.25
2019-05-04T09:20:59.969Z,100208.10
2019-05-04T09:23:01.454Z,100214.50
2019-05-04T09:25:05.682Z,100216.35
2019-05-04T09:27:07.061Z,100213.14
2019-05-04T09:29:08.494Z,100211.02
2019-05-04T09:31:09.877Z,100208.02
2019-05-04T09:33:11.251Z,100211.42
2019-05-04T09:35:16.854Z,100207.81
2019-05-04T09:37:18.413Z,100204.73
2019-05-04T09:39:24.050Z,100206.13
2019-05-04T09:41:34.249Z,100204.64
2019-05-04T09:43:40.991Z,100198.89
2019-05-04T09:45:38.988Z,100200.02
2019-05-04T09:47:40.551Z,100197.16
2019-05-04T09:49:41.982Z,100197.17
2019-05-04T09:51:47.907Z,100197.50
2019-05-04T09:53:49.353Z,100194.98
2019-05-04T09:55:50.724Z,100195.69
2019-05-04T09:58:18.251Z,100192.76
2019-05-04T10:00:17.010Z,100194.38
2019-05-04T10:02:18.394Z,100190.38
2019-05-04T10:04:19.770Z,100194.92
2019-05-04T10:06:30.077Z,100186.14
2019-05-04T10:08:25.422Z,100185.02
2019-05-04T10:10:27.210Z,100189.11
2019-05-04T10:12:30.512Z,100193.23
2019-05-04T10:14:35.098Z,100194.28
2019-05-04T10:16:55.032Z,100194.34
2019-05-04T10:18:58.538Z,100191.04
2019-05-04T10:20:59.921Z,100192.30
2019-05-04T10:23:01.341Z,100186.97
2019-05-04T10:25:05.170Z,100186.84
2019-05-04T10:27:08.445Z,100188.23
2019-05-04T10:29:10.171Z,100184.36
2019-05-04T10:31:11.543Z,100179.42
2019-05-04T10:33:14.970Z,100184.50
2019-05-04T10:35:16.636Z,100181.80
2019-05-04T10:37:18.016Z,100182.80
2019-05-04T10:39:19.369Z,100184.46
2019-05-04T10:41:20.791Z,100176.17
2019-05-04T10:43:24.098Z,100182.53
2019-05-04T10:45:25.491Z,100186.76
2019-05-04T10:47:26.911Z,100192.17
2019-05-04T10:49:28.555Z,100194.90
2019-05-04T10:51:29.928Z,100199.80
2019-05-04T10:53:31.317Z,100192.21
2019-05-04T10:55:32.764Z,100187.45
2019-05-04T10:57:34.624Z,100184.12
2019-05-04T10:59:36.305Z,100179.59
2019-05-04T11:01:37.711Z,100184.26
2019-05-04T11:03:39.091Z,100185.38
2019-05-04T11:05:40.501Z,100189.76
2019-05-04T11:07:41.909Z,100191.37
2019-05-04T11:09:44.342Z,100189.46
2019-05-04T11:11:45.978Z,100192.29
2019-05-04T11:13:59.911Z,100188.26
2019-05-04T11:15:50.655Z,100184.39
2019-05-04T11:17:52.030Z,100191.30
2019-05-04T11:19:55.535Z,100187.53
2019-05-04T11:21:56.938Z,100187.52
2019-05-04T11:23:58.368Z,100185.53
2019-05-04T11:26:01.641Z,100191.16
2019-05-04T11:28:05.478Z,100184.73
2019-05-04T11:30:07.322Z,100186.34
2019-05-04T11:32:09.019Z,100190.70
2019-05-04T11:34:10.397Z,100187.53
2019-05-04T11:36:11.749Z,100183.27
2019-05-04T11:38:14.653Z,100188.19
2019-05-04T11:40:16.238Z,100187.84
2019-05-04T11:42:17.644Z,100194.83
2019-05-04T11:44:19.075Z,100187.17
2019-05-04T11:46:20.672Z,100198.95
2019-05-04T11:48:22.194Z,100196.72
2019-05-04T11:50:24.757Z,100201.79
2019-05-04T11:52:26.330Z,100201.73
2019-05-04T11:54:27.710Z,100203.44
2019-05-04T11:56:29.118Z,100204.61
2019-05-04T11:58:30.493Z,100211.05
2019-05-04T12:00:34.748Z,100202.75
2019-05-04T12:02:36.385Z,100207.88
2019-05-04T12:04:39.698Z,100205.25
2019-05-04T12:06:44.861Z,100202.61
2019-05-04T12:08:48.237Z,100214.00
2019-05-04T12:10:51.549Z,100209.34
2019-05-04T12:12:54.699Z,100211.92
2019-05-04T12:14:56.205Z,100211.98
2019-05-04T12:16:57.589Z,100213.69
2019-05-04T12:18:58.966Z,100210.66
2019-05-04T12:21:00.381Z,100214.19
2019-05-04T12:23:01.752Z,100215.49
2019-05-04T12:25:05.014Z,100213.82
2019-05-04T12:27:06.608Z,100215.49
2019-05-04T12:29:07.984Z,100215.59
2019-05-04T12:31:09.357Z,100219.27
2019-05-04T12:33:10.869Z,100217.08
2019-05-04T12:35:14.094Z,100213.66
2019-05-04T12:37:15.667Z,100212.27
2019-05-04T12:39:17.045Z,100213.30
2019-05-04T12:41:18.599Z,100212.20
2019-05-04T12:43:19.995Z,100204.62
2019-05-04T12:45:21.490Z,100207.94
2019-05-04T12:47:22.847Z,100206.45
2019-05-04T12:49:26.155Z,100210.58
2019-05-04T12:51:27.542Z,100213.14
2019-05-04T12:53:28.952Z,100211.93
2019-05-04T12:55:30.354Z,100210.39
2019-05-04T12:57:31.704Z,100206.90
2019-05-04T12:59:34.688Z,100203.00
2019-05-04T13:01:36.192Z,100200.14
2019-05-04T13:03:37.616Z,100202.23
2019-05-04T13:05:39.792Z,100202.67
2019-05-04T13:07:41.307Z,100208.94
2019-05-04T13:09:44.485Z,100209.93
2019-05-04T13:11:45.992Z,100199.48
2019-05-04T13:13:47.393Z,100197.67
2019-05-04T13:15:48.819Z,100195.20
2019-05-04T13:17:54.286Z,100189.39
2019-05-04T13:19:55.409Z,100188.09
2019-05-04T13:21:56.812Z,100192.47
2019-05-04T13:23:58.220Z,100197.94
2019-05-04T13:25:59.671Z,100199.72
2019-05-04T13:28:01.125Z,100194.95
2019-05-04T13:30:05.746Z,100194.73
2019-05-04T13:32:07.431Z,100189.48
2019-05-04T13:34:08.963Z,100186.66
2019-05-04T13:36:10.394Z,100187.39
2019-05-04T13:38:11.769Z,100182.63
2019-05-04T13:40:14.400Z,100188.30
2019-05-04T13:42:16.072Z,100189.34
2019-05-04T13:44:28.613Z,100184.86
2019-05-04T13:46:20.722Z,100195.72
2019-05-04T13:48:22.091Z,100191.09
2019-05-04T13:50:25.147Z,100195.39
2019-05-04T13:52:26.711Z,100195.09
2019-05-04T13:54:38.870Z,100194.40
2019-05-04T13:56:47.826Z,100194.75
2019-05-04T13:58:54.720Z,100177.39
2019-05-04T14:01:05.001Z,100171.94
2019-05-04T14:03:15.089Z,100170.60
2019-05-04T14:05:16.909Z,100167.97
2019-05-04T14:07:18.288Z,100171.70
2019-05-04T14:09:19.641Z,100168.61
2019-05-04T14:11:21.053Z,100166.81
2019-05-04T14:13:22.423Z,100172.28
2019-05-04T14:15:29.922Z,100170.16
2019-05-04T14:17:27.091Z,100170.89
2019-05-04T14:19:28.491Z,100181.06
2019-05-04T14:21:29.882Z,100177.05
2019-05-04T14:23:31.234Z,100172.28
2019-05-04T14:25:32.667Z,100183.20
2019-05-04T14:27:34.645Z,100186.49
2019-05-04T14:29:36.262Z,100195.64
2019-05-04T14:31:37.636Z,100201.23
2019-05-04T14:33:39.060Z,100205.83
2019-05-04T14:35:40.458Z,100202.02
2019-05-04T14:37:41.813Z,100209.97
2019-05-04T14:39:43.225Z,100207.67
2019-05-04T14:41:46.456Z,100205.91
2019-05-04T14:43:49.888Z,100216.59
2019-05-04T14:46:04.984Z,100222.30
2019-05-04T14:48:20.270Z,100225.34
2019-05-04T14:50:21.660Z,100229.72
2019-05-04T14:52:25.011Z,100234.69
2019-05-04T14:54:26.296Z,100231.73
2019-05-04T14:56:28.009Z,100244.11
2019-05-04T14:58:29.362Z,100255.59
2019-05-04T15:00:30.748Z,100260.64
2019-05-04T15:02:32.170Z,100266.91
2019-05-04T15:04:35.271Z,100275.09
2019-05-04T15:06:36.821Z,100279.62
2019-05-04T15:08:38.247Z,100286.32
2019-05-04T15:10:39.611Z,100277.91
2019-05-04T15:12:40.988Z,100288.03
2019-05-04T15:14:42.403Z,100290.69
2019-05-04T15:16:43.808Z,100295.58
2019-05-04T15:18:51.573Z,100293.28
2019-05-04T15:20:55.228Z,100299.64
2019-05-04T15:22:56.640Z,100301.58
2019-05-04T15:24:58.007Z,100311.74
2019-05-04T15:26:59.488Z,100313.25
2019-05-04T15:29:01.195Z,100312.55
2019-05-04T15:31:04.671Z,100312.64
2019-05-04T15:33:06.138Z,100312.44
2019-05-04T15:35:08.571Z,100309.11
2019-05-04T15:37:10.041Z,100306.08
2019-05-04T15:39:11.422Z,100307.38
2019-05-04T15:41:14.637Z,100306.48
2019-05-04T15:43:16.120Z,100303.47
2019-05-04T15:45:27.670Z,100302.44
2019-05-04T15:47:20.814Z,100302.47
2019-05-04T15:49:24.356Z,100306.05
2019-05-04T15:51:35.034Z,100297.11
2019-05-04T15:53:50.413Z,100301.36
2019-05-04T15:55:55.601Z,100290.39
2019-05-04T15:57:58.907Z,100290.47
2019-05-04T16:00:00.630Z,100289.55
2019-05-04T16:02:04.125Z,100291.20
2019-05-04T16:04:05.329Z,100296.93
2019-05-04T16:06:07.034Z,100295.56
2019-05-04T16:08:09.131Z,100298.97
2019-05-04T16:10:11.201Z,100309.67
2019-05-04T16:12:14.632Z,100306.02
2019-05-04T16:14:16.639Z,100309.34
2019-05-04T16:16:18.335Z,100311.54
2019-05-04T16:18:20.519Z,100312.98
2019-05-04T16:20:24.423Z,100312.27
2019-05-04T16:22:26.409Z,100312.58
2019-05-04T16:24:28.076Z,100309.32
2019-05-04T16:26:29.738Z,100309.89
2019-05-04T16:28:31.461Z,100311.44
2019-05-04T16:30:34.742Z,100318.06
2019-05-04T16:32:36.642Z,100317.36
2019-05-04T16:34:38.306Z,100312.03
2019-05-04T16:36:39.780Z,100310.81
2019-05-04T16:38:41.187Z,100315.75
2019-05-04T16:40:42.572Z,100314.31
2019-05-04T16:42:45.061Z,100317.43
2019-05-04T16:44:46.647Z,100319.94
2019-05-04T16:46:48.106Z,100315.77
2019-05-04T16:48:49.530Z,100318.69
2019-05-04T16:50:52.820Z,100321.66
2019-05-04T16:52:58.889Z,100324.38
2019-05-04T16:55:00.278Z,100329.19
2019-05-04T16:57:01.649Z,100334.45
2019-05-04T16:59:03.989Z,100333.66
2019-05-04T17:01:14.123Z,100337.96
2019-05-04T17:03:17.689Z,100342.41
2019-05-04T17:05:23.943Z,100345.89
2019-05-04T17:07:25.335Z,100349.45
2019-05-04T17:09:28.610Z,100352.56
2019-05-04T17:11:29.968Z,100351.78
2019-05-04T17:13:31.356Z,100359.48
2019-05-04T17:15:34.948Z,100357.34
2019-05-04T17:17:36.487Z,100367.84
2019-05-04T17:19:38.271Z,100369.37
2019-05-04T17:21:41.956Z,100383.84
2019-05-04T17:23:45.473Z,100382.35
2019-05-04T17:26:00.772Z,100395.95
2019-05-04T17:28:04.655Z,100397.77
2019-05-04T17:30:08.977Z,100397.03
2019-05-04T17:32:10.554Z,100403.33
2019-05-04T17:34:12.231Z,100405.92
2019-05-04T17:36:14.830Z,100409.23
2019-05-04T17:38:16.519Z,100408.27
2019-05-04T17:40:18.101Z,100412.23
2019-05-04T17:42:21.831Z,100417.73
2019-05-04T17:44:25.800Z,100419.27
2019-05-04T17:46:27.298Z,100419.05
2019-05-04T17:48:28.652Z,100424.75
2019-05-04T17:50:30.071Z,100424.36
2019-05-04T17:52:31.449Z,100417.59
2019-05-04T17:54:34.754Z,100420.67
2019-05-04T17:56:36.107Z,100426.67
2019-05-04T17:58:37.480Z,100431.53
2019-05-04T18:00:40.745Z,100436.95
2019-05-04T18:02:45.013Z,100437.06
2019-05-04T18:04:48.550Z,100440.25
2019-05-04T18:06:49.972Z,100436.94
2019-05-04T18:08:51.364Z,100437.92
2019-05-04T18:11:00.598Z,100437.66
2019-05-04T18:13:20.599Z,100447.91
2019-05-04T18:15:30.022Z,100447.53
2019-05-04T18:17:48.332Z,100457.22
2019-05-04T18:19:49.702Z,100454.23
2019-05-04T18:21:53.803Z,100456.20
2019-05-04T18:23:54.460Z,100458.98
2019-05-04T18:25:55.819Z,100468.67
2019-05-04T18:27:57.233Z,100472.50
2019-05-04T18:29:58.608Z,100476.99
2019-05-04T18:31:59.989Z,100480.58
2019-05-04T18:34:01.424Z,100483.68
2019-05-04T18:36:05.164Z,100482.48
2019-05-04T18:38:06.759Z,100490.53
2019-05-04T18:40:08.874Z,100492.48
2019-05-04T18:42:12.163Z,100493.48
2019-05-04T18:44:18.093Z,100490.34
2019-05-04T18:46:51.320Z,100503.11
2019-05-04T18:48:54.552Z,100502.52
2019-05-04T18:50:56.029Z,100513.39
2019-05-04T18:52:57.439Z,100518.27
2019-05-04T18:54:58.852Z,100517.35
2019-05-04T18:57:00.256Z,100517.27
2019-05-04T18:59:01.661Z,100522.70
2019-05-04T19:01:05.424Z,100527.34
2019-05-04T19:03:06.496Z,100528.94
2019-05-04T19:05:07.980Z,100529.61
2019-05-04T19:07:11.226Z,100534.47
2019-05-04T19:09:12.699Z,100539.58
2019-05-04T19:11:15.078Z,100544.87
2019-05-04T19:13:16.602Z,100544.16
2019-05-04T19:15:18.118Z,100547.29
2019-05-04T19:17:19.493Z,100552.16
2019-05-04T19:19:20.876Z,100549.02
2019-05-04T19:21:24.155Z,100552.27
2019-05-04T19:23:26.462Z,100559.34
2019-05-04T19:25:27.825Z,100558.41
2019-05-04T19:27:29.359Z,100562.05
2019-05-04T19:29:30.732Z,100564.89
2019-05-04T19:31:34.281Z,100567.92
2019-05-04T19:33:35.985Z,100569.72
2019-05-04T19:35:37.344Z,100567.71
2019-05-04T19:37:38.719Z,100575.11
2019-05-04T19:39:40.127Z,100575.02
2019-05-04T19:41:45.106Z,100573.28
2019-05-04T19:44:00.827Z,100580.78
2019-05-04T19:46:10.006Z,100588.08
2019-05-04T19:48:14.736Z,100589.07
2019-05-04T19:50:16.309Z,100597.34
2019-05-04T19:52:17.711Z,100599.90
2019-05-04T19:54:19.066Z,100602.70
2019-05-04T19:56:20.446Z,100604.65
2019-05-04T19:58:21.838Z,100609.77
2019-05-04T20:00:38.678Z,100606.19
2019-05-04T20:02:39.237Z,100612.44
2019-05-04T20:04:40.596Z,100613.20
2019-05-04T20:06:46.839Z,100616.80
2019-05-04T20:08:54.814Z,100618.91
2019-05-04T20:10:57.947Z,100628.10
2019-05-04T20:12:59.558Z,100635.05
2019-05-04T20:15:14.774Z,100632.80
2019-05-04T20:17:04.817Z,100638.85
2019-05-04T20:19:06.231Z,100642.83
2019-05-04T20:21:07.592Z,100645.22
2019-05-04T20:23:09.167Z,100644.30
2019-05-04T20:25:14.670Z,100647.07
2019-05-04T20:27:16.160Z,100647.66
2019-05-04T20:29:17.573Z,100649.55
2019-05-04T20:31:19.210Z,100649.38
2019-05-04T20:33:20.606Z,100654.14
2019-05-04T20:35:22.022Z,100655.37
2019-05-04T20:37:24.939Z,100656.42
2019-05-04T20:39:26.463Z,100662.88
2019-05-04T20:41:27.883Z,100664.46
2019-05-04T20:43:29.293Z,100662.41
2019-05-04T20:45:34.601Z,100671.52
2019-05-04T20:47:50.551Z,100667.22
2019-05-04T20:49:54.084Z,100667.80
2019-05-04T20:51:55.441Z,100668.13
2019-05-04T20:53:58.749Z,100669.99
2019-05-04T20:56:00.165Z,100672.31
2019-05-04T20:58:01.558Z,100668.73
2019-05-04T21:00:05.716Z,100674.22
2019-05-04T21:02:09.125Z,100680.23
2019-05-04T21:04:18.572Z,100679.00
2019-05-04T21:06:24.743Z,100682.20
2019-05-04T21:08:26.115Z,100683.29
2019-05-04T21:10:27.536Z,100690.34
2019-05-04T21:12:28.963Z,100697.69
2019-05-04T21:14:30.354Z,100700.23
2019-05-04T21:16:34.528Z,100698.84
2019-05-04T21:18:37.936Z,100695.94
2019-05-04T21:20:44.770Z,100701.00
2019-05-04T21:22:46.335Z,100710.40
2019-05-04T21:24:47.707Z,100714.19
2019-05-04T21:26:49.223Z,100708.88
2019-05-04T21:28:50.639Z,100713.37
2019-05-04T21:30:52.005Z,100715.72
2019-05-04T21:32:54.732Z,100717.29
2019-05-04T21:34:56.602Z,100719.06
2019-05-04T21:36:57.990Z,100726.11
2019-05-04T21:38:59.497Z,100728.66
2019-05-04T21:41:00.876Z,100730.66
2019-05-04T21:43:02.460Z,100736.39
2019-05-04T21:45:24.793Z,100740.35
2019-05-04T21:47:44.886Z,100747.02
2019-05-04T21:49:57.127Z,100744.97
2019-05-04T21:51:58.500Z,100747.94
2019-05-04T21:54:00.072Z,100751.84
2019-05-04T21:56:01.442Z,100756.11
2019-05-04T21:58:04.398Z,100758.00
2019-05-04T22:00:11.442Z,100755.78
2019-05-04T22:02:25.457Z,100757.79
2019-05-04T22:04:31.777Z,100761.97
2019-05-04T22:06:33.354Z,100763.70
2019-05-04T22:08:35.078Z,100762.07
2019-05-04T22:10:36.488Z,100763.87
2019-05-04T22:12:37.852Z,100769.37
2019-05-04T22:14:39.264Z,100766.83
2019-05-04T22:16:40.649Z,100768.80
2019-05-04T22:18:42.032Z,100769.52
2019-05-04T22:20:43.654Z,100773.92
2019-05-04T22:22:45.329Z,100775.91
2019-05-04T22:24:46.829Z,100781.07
2019-05-04T22:26:48.350Z,100783.88
2019-05-04T22:28:50.148Z,100791.25
2019-05-04T22:30:51.862Z,100787.91
2019-05-04T22:32:54.766Z,100787.08
2019-05-04T22:34:56.559Z,100788.85
2019-05-04T22:37:12.136Z,100786.23
2019-05-04T22:39:16.745Z,100785.84
2019-05-04T22:41:18.516Z,100786.29
2019-05-04T22:43:20.220Z,100790.28
2019-05-04T22:45:22.107Z,100787.03
2019-05-04T22:47:24.894Z,100792.11
2019-05-04T22:49:26.724Z,100797.15
2019-05-04T22:51:28.911Z,100795.84
2019-05-04T22:53:34.880Z,100795.94
2019-05-04T22:55:45.363Z,100797.00
2019-05-04T22:57:49.118Z,100796.87
2019-05-04T23:00:09.219Z,100800.36
2019-05-04T23:02:15.073Z,100803.94
2019-05-04T23:04:27.354Z,100807.09
2019-05-04T23:06:29.033Z,100812.32
2019-05-04T23:08:30.708Z,100814.03
2019-05-04T23:10:32.847Z,100817.40
2019-05-04T23:12:34.507Z,100820.61
2019-05-04T23:14:36.301Z,100824.50
2019-05-04T23:16:38.201Z,100820.28
2019-05-04T23:18:39.935Z,100823.83
2019-05-04T23:20:41.602Z,100830.24
2019-05-04T23:22:45.486Z,100832.03
2019-05-04T23:24:47.449Z,100838.88
2019-05-04T23:26:49.455Z,100839.70
2019-05-04T23:28:51.236Z,100841.78